createdAt,value
2019-05-22T00:02:37.679Z,12.76
2019-05-22T00:06:05.189Z,12.69
2019-05-22T00:09:24.350Z,12.69
2019-05-22T00:12:46.266Z,12.71
2019-05-22T00:15:44.126Z,12.64
2019-05-22T00:18:52.543Z,12.65
2019-05-22T00:22:10.327Z,12.62
2019-05-22T00:25:35.704Z,12.45
2019-05-22T00:28:43.166Z,12.34
2019-05-22T00:31:49.569Z,12.46
2019-05-22T00:35:09.692Z,12.50
2019-05-22T00:38:28.871Z,12.60
2019-05-22T00:41:35.506Z,12.57
2019-05-22T00:44:44.188Z,12.58
2019-05-22T00:47:53.017Z,12.58
2019-05-22T00:51:22.310Z,12.54
2019-05-22T00:55:07.310Z,12.38
2019-05-22T00:58:32.399Z,12.35
2019-05-22T01:01:46.212Z,12.43
2019-05-22T01:04:54.250Z,12.42
2019-05-22T01:08:15.994Z,12.50
2019-05-22T01:11:34.079Z,12.44
2019-05-22T01:14:53.363Z,12.49
2019-05-22T01:18:16.622Z,12.38
2019-05-22T01:21:38.239Z,12.42
2019-05-22T01:24:46.983Z,12.30
2019-05-22T01:28:05.749Z,12.36
2019-05-22T01:31:19.444Z,12.23
2019-05-22T01:34:30.105Z,12.24
2019-05-22T01:37:36.623Z,12.27
2019-05-22T01:40:52.033Z,12.32
2019-05-22T01:44:03.320Z,12.29
2019-05-22T01:47:16.759Z,12.29
2019-05-22T01:50:46.976Z,12.32
2019-05-22T01:53:54.358Z,12.30
2019-05-22T01:57:06.983Z,12.07
2019-05-22T02:00:24.240Z,12.24
2019-05-22T02:03:40.869Z,12.07
2019-05-22T02:06:47.940Z,12.11
2019-05-22T02:10:06.721Z,12.06
2019-05-22T02:13:14.619Z,11.95
2019-05-22T02:16:22.570Z,12.06
2019-05-22T02:19:40.962Z,12.16
2019-05-22T02:22:50.092Z,12.19
2019-05-22T02:26:00.017Z,12.15
2019-05-22T02:29:08.513Z,11.94
2019-05-22T02:32:17.727Z,12.00
2019-05-22T02:35:25.418Z,11.99
2019-05-22T02:38:31.763Z,12.01
2019-05-22T02:41:46.058Z,11.82
2019-05-22T02:44:53.829Z,11.95
2019-05-22T02:48:13.855Z,12.09
2019-05-22T02:51:20.733Z,12.05
2019-05-22T02:54:31.514Z,12.07
2019-05-22T02:57:39.083Z,12.03
2019-05-22T03:01:02.693Z,12.12
2019-05-22T03:04:11.774Z,12.02
2019-05-22T03:07:19.909Z,12.03
2019-05-22T03:10:29.526Z,12.03
2019-05-22T03:13:59.816Z,12.04
2019-05-22T03:17:09.710Z,12.04
2019-05-22T03:20:19.381Z,12.00
2019-05-22T03:23:37.961Z,12.00
2019-05-22T03:26:48.763Z,11.89
2019-05-22T03:29:56.366Z,11.96
2019-05-22T03:33:05.862Z,11.92
2019-05-22T03:36:17.860Z,11.92
2019-05-22T03:39:25.587Z,11.87
2019-05-22T03:42:34.053Z,11.84
2019-05-22T03:45:41.890Z,11.82
2019-05-22T03:48:49.346Z,11.82
2019-05-22T03:52:09.672Z,11.87
2019-05-22T03:55:18.032Z,11.80
2019-05-22T03:58:25.753Z,11.80
2019-05-22T04:01:33.293Z,11.85
2019-05-22T04:04:42.076Z,11.85
2019-05-22T04:07:49.862Z,11.87
2019-05-22T04:11:08.391Z,11.92
2019-05-22T04:14:15.962Z,11.90
2019-05-22T04:17:35.080Z,11.92
2019-05-22T04:20:41.988Z,11.88
2019-05-22T04:23:49.491Z,11.87
2019-05-22T04:27:07.430Z,11.89
2019-05-22T04:30:15.591Z,11.80
2019-05-22T04:33:32.311Z,11.88
2019-05-22T04:36:55.194Z,11.84
2019-05-22T04:40:54.320Z,11.88
2019-05-22T04:44:11.658Z,11.92
2019-05-22T04:47:19.939Z,11.88
2019-05-22T04:50:37.529Z,11.89
2019-05-22T04:53:45.021Z,11.86
2019-05-22T04:56:53.507Z,11.82
2019-05-22T05:00:00.846Z,11.84
2019-05-22T05:03:08.818Z,11.80
2019-05-22T05:06:17.858Z,11.82
2019-05-22T05:09:36.711Z,11.84
2019-05-22T05:12:53.604Z,11.85
2019-05-22T05:16:10.721Z,11.85
2019-05-22T05:19:29.366Z,11.73
2019-05-22T05:22:52.188Z,11.88
2019-05-22T05:26:09.036Z,11.87
2019-05-22T05:29:33.437Z,11.84
2019-05-22T05:32:41.204Z,11.88
2019-05-22T05:35:49.253Z,11.87
2019-05-22T05:38:56.340Z,11.84
2019-05-22T05:42:03.981Z,11.86
2019-05-22T05:45:13.602Z,11.86
2019-05-22T05:48:24.483Z,11.87
2019-05-22T05:51:40.466Z,11.90
2019-05-22T05:54:59.946Z,11.95
2019-05-22T05:58:26.470Z,11.87
2019-05-22T06:01:36.579Z,11.92
2019-05-22T06:04:43.960Z,11.95
2019-05-22T06:07:51.494Z,11.96
2019-05-22T06:11:39.145Z,11.91
2019-05-22T06:14:57.710Z,11.99
2019-05-22T06:18:34.325Z,11.96
2019-05-22T06:21:49.177Z,11.99
2019-05-22T06:24:58.296Z,11.99
2019-05-22T06:28:06.028Z,12.02
2019-05-22T06:31:35.284Z,12.03
2019-05-22T06:34:42.486Z,11.95
2019-05-22T06:37:58.493Z,11.97
2019-05-22T06:41:06.800Z,11.95
2019-05-22T06:44:56.209Z,12.03
2019-05-22T06:48:03.614Z,11.91
2019-05-22T06:51:19.054Z,11.96
2019-05-22T06:54:20.024Z,11.98
2019-05-22T06:57:28.489Z,11.99
2019-05-22T07:00:36.244Z,11.98
2019-05-22T07:03:42.491Z,11.94
2019-05-22T07:06:50.288Z,11.98
2019-05-22T07:09:57.809Z,11.98
2019-05-22T07:13:05.686Z,12.00
2019-05-22T07:16:13.077Z,12.04
2019-05-22T07:19:22.553Z,12.02
2019-05-22T07:22:30.085Z,11.95
2019-05-22T07:25:52.290Z,12.01
2019-05-22T07:29:01.694Z,11.99
2019-05-22T07:32:18.741Z,12.04
2019-05-22T07:35:45.711Z,11.98
2019-05-22T07:38:36.508Z,12.04
2019-05-22T07:41:53.922Z,12.03
2019-05-22T07:45:01.302Z,12.03
2019-05-22T07:48:09.727Z,12.06
2019-05-22T07:51:18.030Z,12.02
2019-05-22T07:54:25.549Z,12.03
2019-05-22T07:57:44.525Z,12.11
2019-05-22T08:01:02.279Z,12.11
2019-05-22T08:04:10.338Z,12.08
2019-05-22T08:07:20.161Z,12.04
2019-05-22T08:10:40.715Z,11.97
2019-05-22T08:13:48.280Z,11.97
2019-05-22T08:16:55.821Z,12.05
2019-05-22T08:20:12.805Z,12.09
2019-05-22T08:23:20.726Z,12.04
2019-05-22T08:26:29.143Z,12.10
2019-05-22T08:29:37.156Z,12.06
2019-05-22T08:32:54.664Z,12.10
2019-05-22T08:36:03.131Z,12.03
2019-05-22T08:39:11.452Z,12.07
2019-05-22T08:42:19.446Z,12.07
2019-05-22T08:45:27.916Z,12.05
2019-05-22T08:48:36.287Z,12.09
2019-05-22T08:51:59.735Z,12.13
2019-05-22T08:55:08.313Z,12.09
2019-05-22T08:58:15.554Z,12.09
2019-05-22T09:01:22.526Z,12.09
2019-05-22T09:04:39.033Z,12.13
2019-05-22T09:07:56.079Z,12.15
2019-05-22T09:11:12.782Z,12.19
2019-05-22T09:14:29.598Z,12.21
2019-05-22T09:17:47.488Z,12.20
2019-05-22T09:20:55.235Z,12.15
2019-05-22T09:24:16.690Z,12.23
2019-05-22T09:27:24.370Z,12.23
2019-05-22T09:30:31.778Z,12.24
2019-05-22T09:33:48.768Z,12.31
2019-05-22T09:36:55.096Z,12.28
2019-05-22T09:40:02.777Z,12.30
2019-05-22T09:43:25.578Z,12.37
2019-05-22T09:46:42.466Z,12.35
2019-05-22T09:50:00.376Z,12.36
2019-05-22T09:53:09.211Z,12.32
2019-05-22T09:56:16.963Z,12.33
2019-05-22T09:59:22.781Z,12.32
2019-05-22T10:02:39.529Z,12.41
2019-05-22T10:05:56.350Z,12.42
2019-05-22T10:09:02.429Z,12.42
2019-05-22T10:12:09.923Z,12.42
2019-05-22T10:15:18.605Z,12.47
2019-05-22T10:18:26.234Z,12.51
2019-05-22T10:21:34.120Z,12.49
2019-05-22T10:24:42.112Z,12.53
2019-05-22T10:27:49.903Z,12.56
2019-05-22T10:31:08.032Z,12.63
2019-05-22T10:34:25.633Z,12.67
2019-05-22T10:37:33.029Z,12.61
2019-05-22T10:40:40.431Z,12.65
2019-05-22T10:43:48.205Z,12.62
2019-05-22T10:46:54.022Z,12.64
2019-05-22T10:50:11.467Z,12.68
2019-05-22T10:53:33.839Z,12.71
2019-05-22T10:56:46.857Z,12.70
2019-05-22T11:00:13.032Z,12.70
2019-05-22T11:03:32.509Z,12.73
2019-05-22T11:06:40.950Z,12.68
2019-05-22T11:09:48.511Z,12.68
2019-05-22T11:12:56.059Z,12.71
2019-05-22T11:16:13.644Z,12.77
2019-05-22T11:19:31.071Z,12.79
2019-05-22T11:22:37.974Z,12.79
2019-05-22T11:25:55.176Z,12.86
2019-05-22T11:29:03.670Z,12.88
2019-05-22T11:32:21.057Z,12.97
2019-05-22T11:35:39.090Z,13.04
2019-05-22T11:38:46.642Z,13.06
2019-05-22T11:41:53.268Z,13.08
2019-05-22T11:45:00.696Z,13.12
2019-05-22T11:48:08.748Z,13.16
2019-05-22T11:51:15.159Z,13.23
2019-05-22T11:54:22.824Z,13.24
2019-05-22T11:57:30.281Z,13.28
2019-05-22T12:00:47.796Z,13.35
2019-05-22T12:03:55.264Z,13.34
2019-05-22T12:07:04.290Z,13.42
2019-05-22T12:10:12.340Z,13.46
2019-05-22T12:13:19.725Z,13.52
2019-05-22T12:16:28.070Z,13.57
2019-05-22T12:19:35.795Z,13.64
2019-05-22T12:22:43.289Z,13.68
2019-05-22T12:25:49.036Z,13.72
2019-05-22T12:28:56.475Z,13.77
2019-05-22T12:32:14.455Z,13.86
2019-05-22T12:35:22.126Z,13.85
2019-05-22T12:38:39.706Z,13.92
2019-05-22T12:41:48.736Z,13.92
2019-05-22T12:44:56.098Z,14.04
2019-05-22T12:48:05.077Z,14.02
2019-05-22T12:51:11.173Z,14.03
2019-05-22T12:54:45.349Z,14.10
2019-05-22T12:57:48.952Z,14.12
2019-05-22T13:00:56.703Z,14.11
2019-05-22T13:04:04.749Z,14.17
2019-05-22T13:07:12.039Z,14.18
2019-05-22T13:10:19.768Z,14.19
2019-05-22T13:13:27.452Z,14.23
2019-05-22T13:16:48.838Z,14.24
2019-05-22T13:19:53.534Z,14.23
2019-05-22T13:23:01.830Z,14.23
2019-05-22T13:26:18.970Z,14.25
2019-05-22T13:29:37.790Z,14.23
2019-05-22T13:32:45.316Z,14.22
2019-05-22T13:35:52.924Z,14.19
2019-05-22T13:39:00.686Z,14.17
2019-05-22T13:42:08.339Z,14.18
2019-05-22T13:45:28.494Z,14.20
2019-05-22T13:48:40.897Z,14.24
2019-05-22T13:52:06.449Z,14.20
2019-05-22T13:55:23.229Z,14.20
2019-05-22T13:58:57.191Z,14.19
2019-05-22T14:02:45.067Z,14.17
2019-05-22T14:10:34.724Z,14.17
2019-05-22T14:14:11.262Z,14.18
2019-05-22T14:17:46.026Z,14.18
2019-05-22T14:21:41.155Z,14.21
2019-05-22T14:25:13.317Z,14.18
2019-05-22T14:30:53.815Z,14.22
2019-05-22T14:32:58.354Z,14.24
2019-05-22T14:40:27.558Z,14.25
2019-05-22T14:44:53.740Z,14.29
2019-05-22T14:49:07.942Z,14.30
2019-05-22T14:52:54.539Z,14.36
2019-05-22T14:56:40.608Z,14.38
2019-05-22T15:00:21.894Z,14.41
2019-05-22T15:04:32.787Z,14.48
2019-05-22T15:12:16.101Z,14.59
2019-05-22T15:15:48.446Z,14.61
2019-05-22T15:18:55.406Z,14.71
2019-05-22T15:22:02.541Z,14.77
2019-05-22T15:25:20.728Z,14.89
2019-05-22T15:28:28.552Z,14.88
2019-05-22T15:31:46.158Z,14.99
2019-05-22T15:35:03.618Z,15.05
2019-05-22T15:38:12.477Z,15.04
2019-05-22T15:41:20.122Z,15.11
2019-05-22T15:44:28.136Z,15.17
2019-05-22T15:47:52.593Z,15.22
2019-05-22T15:50:46.762Z,15.29
2019-05-22T15:54:05.574Z,15.38
2019-05-22T15:57:14.759Z,15.35
2019-05-22T16:00:24.311Z,15.42
2019-05-22T16:03:43.136Z,15.50
2019-05-22T16:06:51.583Z,15.51
2019-05-22T16:09:58.954Z,15.53
2019-05-22T16:13:06.641Z,15.55
2019-05-22T16:16:16.654Z,15.51
2019-05-22T16:19:24.585Z,15.52
2019-05-22T16:22:31.533Z,15.52
2019-05-22T16:25:39.997Z,15.52
2019-05-22T16:28:49.413Z,15.53
2019-05-22T16:32:09.829Z,15.56
2019-05-22T16:35:17.390Z,15.50
2019-05-22T16:38:25.451Z,15.50
2019-05-22T16:41:43.052Z,15.50
2019-05-22T16:44:50.526Z,15.45
2019-05-22T16:47:59.838Z,15.42
2019-05-22T16:51:08.373Z,15.35
2019-05-22T16:54:20.399Z,15.36
2019-05-22T16:57:26.367Z,15.30
2019-05-22T17:00:34.499Z,15.28
2019-05-22T17:03:41.966Z,15.22
2019-05-22T17:06:49.458Z,15.17
2019-05-22T17:09:57.174Z,15.13
2019-05-22T17:13:15.614Z,15.14
2019-05-22T17:16:23.348Z,14.99
2019-05-22T17:19:40.631Z,14.99
2019-05-22T17:22:57.845Z,14.73
2019-05-22T17:26:14.807Z,14.73
2019-05-22T17:29:22.382Z,14.72
2019-05-22T17:32:29.753Z,14.65
2019-05-22T17:35:37.610Z,14.62
2019-05-22T17:38:56.510Z,14.63
2019-05-22T17:42:15.883Z,14.56
2019-05-22T17:45:25.648Z,14.36
2019-05-22T17:48:34.090Z,14.34
2019-05-22T17:51:51.427Z,14.30
2019-05-22T17:54:59.462Z,14.17
2019-05-22T17:58:07.129Z,14.19
2019-05-22T18:01:24.395Z,14.13
2019-05-22T18:04:41.527Z,14.07
2019-05-22T18:07:59.138Z,13.94
2019-05-22T18:11:08.343Z,13.82
2019-05-22T18:14:16.116Z,13.73
2019-05-22T18:17:33.485Z,13.65
2019-05-22T18:20:43.439Z,13.60
2019-05-22T18:23:48.592Z,13.54
2019-05-22T18:26:54.859Z,13.58
2019-05-22T18:30:12.265Z,13.48
2019-05-22T18:33:19.604Z,13.38
2019-05-22T18:36:27.171Z,13.28
2019-05-22T18:39:34.863Z,13.17
2019-05-22T18:42:42.539Z,13.12
2019-05-22T18:45:50.019Z,13.05
2019-05-22T18:48:57.957Z,13.01
2019-05-22T18:52:05.028Z,13.02
2019-05-22T18:55:12.428Z,12.87
2019-05-22T18:58:29.702Z,12.91
2019-05-22T19:01:37.305Z,12.75
2019-05-22T19:04:44.743Z,12.69
2019-05-22T19:07:52.251Z,12.65
2019-05-22T19:10:58.511Z,12.50
2019-05-22T19:14:06.575Z,12.43
2019-05-22T19:17:14.126Z,12.39
2019-05-22T19:20:31.205Z,12.31
2019-05-22T19:23:48.118Z,12.23
2019-05-22T19:27:10.949Z,12.26
2019-05-22T19:30:28.018Z,12.21
2019-05-22T19:33:35.326Z,12.00
2019-05-22T19:36:42.807Z,11.89
2019-05-22T19:39:50.718Z,11.87
2019-05-22T19:43:11.733Z,11.80
2019-05-22T19:46:34.315Z,11.74
2019-05-22T19:49:51.715Z,11.67
2019-05-22T19:53:18.692Z,11.59
2019-05-22T19:56:23.433Z,11.51
2019-05-22T19:59:29.763Z,11.46
2019-05-22T20:02:36.530Z,11.38
2019-05-22T20:05:53.342Z,11.34
2019-05-22T20:09:11.783Z,11.28
2019-05-22T20:12:19.075Z,11.16
2019-05-22T20:15:36.507Z,11.13
2019-05-22T20:18:44.119Z,11.04
2019-05-22T20:21:51.935Z,10.97
2019-05-22T20:25:12.730Z,10.95
2019-05-22T20:28:20.146Z,10.83
2019-05-22T20:31:28.327Z,10.79
2019-05-22T20:34:36.033Z,10.74
2019-05-22T20:37:45.222Z,10.68
2019-05-22T20:40:52.631Z,10.61
2019-05-22T20:44:11.155Z,10.60
2019-05-22T20:47:33.314Z,10.54
2019-05-22T20:50:40.844Z,10.44
2019-05-22T20:53:58.615Z,10.42
2019-05-22T20:57:07.984Z,10.29
2019-05-22T21:00:25.814Z,10.28
2019-05-22T21:03:33.289Z,10.17
2019-05-22T21:06:46.330Z,10.10
2019-05-22T21:09:53.881Z,10.01
2019-05-22T21:13:01.345Z,9.95
2019-05-22T21:16:09.322Z,9.90
2019-05-22T21:19:18.368Z,9.83
2019-05-22T21:22:25.362Z,9.77
2019-05-22T21:25:32.868Z,9.72
2019-05-22T21:28:40.774Z,9.70
2019-05-22T21:31:48.182Z,9.66
2019-05-22T21:35:05.858Z,9.68
2019-05-22T21:38:13.521Z,9.56
2019-05-22T21:41:30.547Z,9.59
2019-05-22T21:44:36.895Z,9.55
2019-05-22T21:47:44.563Z,9.50
2019-05-22T21:50:52.005Z,9.47
2019-05-22T21:54:09.514Z,9.42
2019-05-22T21:57:16.998Z,9.34
2019-05-22T22:00:47.423Z,9.34
2019-05-22T22:04:04.515Z,9.34
2019-05-22T22:07:11.576Z,9.28
2019-05-22T22:10:20.484Z,9.24
2019-05-22T22:13:28.015Z,9.19
2019-05-22T22:16:35.427Z,9.16
2019-05-22T22:19:42.892Z,9.10
2019-05-22T22:22:59.812Z,9.11
2019-05-22T22:26:25.807Z,9.03
2019-05-22T22:29:32.408Z,8.93
2019-05-22T22:32:40.838Z,8.87
2019-05-22T22:35:48.518Z,8.84
2019-05-22T22:38:56.954Z,8.77
2019-05-22T22:42:04.312Z,8.71
2019-05-22T22:45:20.073Z,8.65
2019-05-22T22:48:32.049Z,8.60
2019-05-22T22:51:37.654Z,8.54
2019-05-22T22:54:45.405Z,8.48
2019-05-22T22:58:16.018Z,8.47
2019-05-22T23:01:25.611Z,8.39
2019-05-22T23:04:34.123Z,8.30
2019-05-22T23:07:51.244Z,8.26
2019-05-22T23:10:58.747Z,8.20
2019-05-22T23:14:06.337Z,8.16
2019-05-22T23:17:13.965Z,8.10
2019-05-22T23:20:35.905Z,8.12
2019-05-22T23:23:42.221Z,8.04
2019-05-22T23:26:49.846Z,7.99
2019-05-22T23:30:10.915Z,7.96
2019-05-22T23:33:19.229Z,7.90
2019-05-22T23:36:25.487Z,7.87
2019-05-22T23:39:33.584Z,7.93
2019-05-22T23:42:51.375Z,7.92
2019-05-22T23:45:58.869Z,7.87
2019-05-22T23:49:06.219Z,7.88
2019-05-22T23:52:15.404Z,7.86
2019-05-22T23:55:21.379Z,7.86
2019-05-22T23:58:52.306Z,7.91
